< < Back
Terminal Aerodrome Forecast


Current Version              Previous Versions:   1  2  3  4  5  6  7  8  9  

Terminal Aerodrome Forecast

206
FTUS42 KJAX 201100
TAFJAX
TAF
KJAX 201120Z 2012/2112 06003KT P6SM BKN035
     FM201400 07008KT P6SM BKN040
     FM202300 08004KT P6SM SCT030 BKN250=



Latest METAR

858
SAUS80 KWBC 210200 CCA
MTRJAX
METAR KJAX 210156Z 00000KT 10SM SCT150 BKN250 21/19 A2998 RMK AO2 SLP152
T02060194


USA.gov is the U.S. government's official web portal to all federal, state and local government web resources and services.